Time;durP1;ratioP1;P1;durP2;ratioP2;P2;SDS_P1;SDS_P2;PMS_P1;PMS_P2;Temp;Humidity;BMP_temperature;BMP_pressure;BME280_temperature;BME280_humidity;BME280_pressure;Samples;Min_cycle;Max_cycle;Signal;HPM_P1;HPM_P2
2022/03/16 00:02:02;;;;;;;50.67;34.65;;;5.90;99.90;;;;;;5032420;28;20084;-80
2022/03/16 00:04:27;;;;;;;50.10;33.55;;;6.00;99.90;;;;;;5015291;28;20079;-80
2022/03/16 00:06:53;;;;;;;49.85;34.50;;;6.00;99.90;;;;;;5032381;28;20478;-80
2022/03/16 00:09:19;;;;;;;49.92;35.08;;;6.10;99.90;;;;;;5015117;28;20049;-80
2022/03/16 00:11:44;;;;;;;53.47;34.13;;;6.10;99.90;;;;;;5032669;28;20049;-80
2022/03/16 00:14:10;;;;;;;48.28;32.90;;;6.10;99.90;;;;;;5014901;28;20045;-80
2022/03/16 00:16:35;;;;;;;55.55;36.47;;;6.20;99.90;;;;;;5015240;28;20049;-80
2022/03/16 00:19:01;;;;;;;55.83;36.58;;;6.20;99.90;;;;;;5032554;28;20076;-81
2022/03/16 00:21:27;;;;;;;54.88;36.58;;;6.20;99.90;;;;;;5014779;28;20136;-80
2022/03/16 00:23:52;;;;;;;55.92;38.22;;;6.20;99.90;;;;;;5032550;28;20049;-80
2022/03/16 00:26:18;;;;;;;62.05;37.03;;;6.30;99.90;;;;;;5014561;28;20405;-80
2022/03/16 00:28:44;;;;;;;55.45;37.35;;;6.30;99.90;;;;;;5032568;28;20053;-80
2022/03/16 00:31:09;;;;;;;59.45;36.78;;;6.30;99.90;;;;;;5032065;28;20128;-80
2022/03/16 00:33:35;;;;;;;57.25;36.95;;;6.40;99.90;;;;;;4998746;28;20049;-80
2022/03/16 00:36:00;;;;;;;55.95;35.97;;;6.40;99.90;;;;;;5032466;28;20052;-80
2022/03/16 00:38:26;;;;;;;57.33;37.58;;;6.30;99.90;;;;;;5014480;28;20501;-80
2022/03/16 00:40:52;;;;;;;58.33;37.08;;;6.30;99.90;;;;;;5032324;28;20119;-80
2022/03/16 00:43:17;;;;;;;56.25;35.42;;;6.30;99.90;;;;;;4998387;28;20128;-79
2022/03/16 00:45:43;;;;;;;47.90;34.83;;;6.30;99.90;;;;;;5014896;28;20045;-80
2022/03/16 00:48:09;;;;;;;53.17;35.70;;;6.30;99.90;;;;;;4998297;28;20136;-80
2022/03/16 00:50:34;;;;;;;47.28;33.70;;;6.20;99.90;;;;;;5014842;28;20180;-80
2022/03/16 00:53:00;;;;;;;54.05;35.78;;;6.30;99.90;;;;;;4998658;28;20393;-80
2022/03/16 00:55:26;;;;;;;54.53;36.65;;;6.20;99.90;;;;;;5014677;28;20123;-80
2022/03/16 00:57:52;;;;;;;54.80;35.75;;;6.20;99.90;;;;;;5032530;28;20049;-80
2022/03/16 01:00:17;;;;;;;54.38;35.85;;;6.30;99.90;;;;;;5014467;28;20042;-80
2022/03/16 01:02:43;;;;;;;54.28;36.85;;;6.20;99.90;;;;;;5032380;28;20048;-81
2022/03/16 01:05:09;;;;;;;53.50;36.40;;;6.20;99.90;;;;;;5032148;28;20091;-82
2022/03/16 01:07:34;;;;;;;57.45;37.88;;;6.30;99.90;;;;;;5014717;28;20133;-80
2022/03/16 01:10:00;;;;;;;56.60;36.83;;;6.20;99.90;;;;;;5032156;28;20045;-80
2022/03/16 01:12:26;;;;;;;50.67;34.92;;;6.30;99.90;;;;;;4998111;28;20124;-79
2022/03/16 01:14:51;;;;;;;48.25;33.35;;;6.20;99.90;;;;;;5032299;28;20080;-80
2022/03/16 01:17:17;;;;;;;48.05;33.97;;;6.20;99.90;;;;;;5031867;28;20037;-80
2022/03/16 01:19:43;;;;;;;46.63;32.67;;;6.20;99.90;;;;;;5035505;28;20045;-81
2022/03/16 01:22:08;;;;;;;46.05;31.17;;;6.10;99.90;;;;;;5035762;28;20413;-81
2022/03/16 01:24:34;;;;;;;42.65;30.40;;;6.00;99.90;;;;;;5017818;28;20064;-81
2022/03/16 01:26:59;;;;;;;43.08;32.00;;;6.00;99.90;;;;;;5035888;28;20104;-81
2022/03/16 01:29:25;;;;;;;42.92;31.13;;;5.90;99.90;;;;;;5035367;28;20119;-81
2022/03/16 01:31:54;;;;;;;49.08;32.53;;;5.80;99.90;;;;;;5036426;28;20065;-77
2022/03/16 01:34:20;;;;;;;43.03;31.65;;;5.70;99.90;;;;;;5024887;28;20037;-76
2022/03/16 01:36:46;;;;;;;46.30;31.90;;;5.70;99.90;;;;;;5044513;28;20077;-77
2022/03/16 01:39:11;;;;;;;47.42;32.92;;;5.70;99.90;;;;;;5023859;28;20136;-79
2022/03/16 01:41:37;;;;;;;51.47;34.75;;;5.60;99.90;;;;;;5017274;28;20046;-81
2022/03/16 01:44:03;;;;;;;48.60;31.75;;;5.60;99.90;;;;;;5017764;28;20049;-80
2022/03/16 01:46:29;;;;;;;46.78;32.38;;;5.60;99.90;;;;;;5034976;28;20060;-81
2022/03/16 01:48:54;;;;;;;46.03;31.33;;;5.60;99.90;;;;;;5035140;28;20041;-81
2022/03/16 01:51:23;;;;;;;44.20;29.90;;;5.60;99.90;;;;;;5034884;28;20046;-81
2022/03/16 01:53:49;;;;;;;40.30;29.63;;;5.50;99.90;;;;;;5017805;28;20080;-80
2022/03/16 01:56:15;;;;;;;47.05;33.10;;;5.40;99.90;;;;;;5017722;28;20049;-80
2022/03/16 01:58:41;;;;;;;41.47;30.42;;;5.40;99.90;;;;;;5035245;28;20081;-80
2022/03/16 02:01:07;;;;;;;43.30;31.52;;;5.40;99.90;;;;;;5017588;28;20135;-79
2022/03/16 02:03:32;;;;;;;45.85;32.45;;;5.40;99.90;;;;;;5034997;28;20049;-81
2022/03/16 02:05:59;;;;;;;46.70;32.90;;;5.30;99.90;;;;;;5017632;28;20045;-79
2022/03/16 02:08:30;;;;;;;41.15;30.65;;;5.30;99.90;;;;;;5001026;28;20050;-81
2022/03/16 02:10:56;;;;;;;41.13;31.13;;;5.30;99.90;;;;;;5017769;28;20037;-81
2022/03/16 02:13:21;;;;;;;46.92;31.73;;;5.20;99.90;;;;;;5000786;28;20056;-81
2022/03/16 02:15:47;;;;;;;59.30;31.73;;;5.20;99.90;;;;;;5034832;28;20049;-80
2022/03/16 02:18:14;;;;;;;47.70;32.38;;;5.10;99.90;;;;;;5017206;28;20046;-79
2022/03/16 02:20:40;;;;;;;43.80;31.02;;;5.10;99.90;;;;;;5033880;28;20494;-80
2022/03/16 02:23:06;;;;;;;40.85;30.15;;;5.10;99.90;;;;;;5034759;28;20041;-80
2022/03/16 02:25:32;;;;;;;42.40;30.20;;;5.10;99.90;;;;;;5016944;28;20050;-79
2022/03/16 02:27:58;;;;;;;41.33;29.75;;;5.10;99.90;;;;;;5017241;28;20049;-80
2022/03/16 02:30:25;;;;;;;38.72;29.45;;;5.00;99.90;;;;;;5016261;28;20503;-80
2022/03/16 02:32:51;;;;;;;40.50;30.92;;;5.00;99.90;;;;;;5034567;28;20049;-79
2022/03/16 02:35:17;;;;;;;48.00;31.80;;;5.00;99.90;;;;;;5016987;28;20056;-80
2022/03/16 02:37:42;;;;;;;46.95;30.55;;;4.90;99.90;;;;;;5034100;28;20128;-78
2022/03/16 02:40:12;;;;;;;44.45;30.63;;;4.80;99.90;;;;;;5034093;28;20041;-80
2022/03/16 02:42:38;;;;;;;42.37;30.40;;;4.90;99.90;;;;;;5016983;28;20061;-79
2022/03/16 02:45:05;;;;;;;42.33;29.35;;;4.80;99.90;;;;;;5016369;28;20771;-81
2022/03/16 02:47:30;;;;;;;40.33;28.63;;;4.80;99.90;;;;;;5033860;28;20045;-80
2022/03/16 02:49:56;;;;;;;44.80;30.75;;;4.80;99.90;;;;;;4984327;28;20050;-81
2022/03/16 02:52:22;;;;;;;41.80;30.13;;;4.70;99.90;;;;;;5034254;28;20460;-80
2022/03/16 02:54:48;;;;;;;44.03;30.35;;;4.70;99.90;;;;;;5016129;28;20049;-79
2022/03/16 02:57:16;;;;;;;42.38;30.98;;;4.70;99.90;;;;;;5034325;28;20072;-80
2022/03/16 02:59:42;;;;;;;44.40;30.98;;;4.70;99.90;;;;;;5033672;28;20049;-79
2022/03/16 03:02:08;;;;;;;43.35;29.95;;;4.70;99.90;;;;;;5034031;28;20428;-80
2022/03/16 03:04:34;;;;;;;42.08;29.60;;;4.70;99.90;;;;;;5033676;28;20049;-79
2022/03/16 03:07:00;;;;;;;38.08;27.35;;;4.60;99.90;;;;;;4999999;28;20125;-78
2022/03/16 03:09:25;;;;;;;40.63;29.52;;;4.60;99.90;;;;;;5034093;28;20041;-78
2022/03/16 03:11:52;;;;;;;40.03;27.90;;;4.60;99.90;;;;;;5037685;28;20041;-76
2022/03/16 03:14:17;;;;;;;37.05;27.08;;;4.70;99.90;;;;;;5022093;28;20069;-76
2022/03/16 03:16:43;;;;;;;40.53;28.33;;;4.60;99.90;;;;;;5036397;28;20405;-75
2022/03/16 03:19:09;;;;;;;38.70;28.70;;;4.60;99.90;;;;;;5021019;28;20053;-78
2022/03/16 03:21:34;;;;;;;44.90;30.05;;;4.60;99.90;;;;;;5033272;28;20127;-79
2022/03/16 03:24:00;;;;;;;40.90;28.60;;;4.60;99.90;;;;;;5015995;28;20079;-79
2022/03/16 03:26:26;;;;;;;37.35;27.45;;;4.50;99.90;;;;;;5033419;28;20068;-78
2022/03/16 03:28:51;;;;;;;42.03;29.67;;;4.60;99.90;;;;;;5033041;28;20045;-79
2022/03/16 03:31:17;;;;;;;41.75;28.83;;;4.60;99.90;;;;;;5033524;28;20045;-79
2022/03/16 03:33:43;;;;;;;40.70;28.58;;;4.60;99.90;;;;;;5033012;28;20049;-79
2022/03/16 03:36:08;;;;;;;42.85;30.13;;;4.60;99.90;;;;;;5015703;28;20041;-80
2022/03/16 03:38:34;;;;;;;39.00;27.48;;;4.50;99.90;;;;;;4999209;28;20136;-79
2022/03/16 03:41:00;;;;;;;38.63;27.83;;;4.50;99.90;;;;;;5014725;28;20068;-79
2022/03/16 03:43:25;;;;;;;37.35;27.13;;;4.40;99.90;;;;;;5015661;28;20049;-79
2022/03/16 03:45:51;;;;;;;39.28;28.23;;;4.40;99.90;;;;;;5015416;28;20087;-79
2022/03/16 03:48:17;;;;;;;40.92;29.58;;;4.40;99.90;;;;;;5033143;28;20389;-79
2022/03/16 03:50:42;;;;;;;44.60;30.65;;;4.40;99.90;;;;;;5015161;28;20041;-78
2022/03/16 03:53:08;;;;;;;40.00;28.13;;;4.40;99.90;;;;;;4999430;28;20433;-79
2022/03/16 03:55:34;;;;;;;39.97;28.10;;;4.40;99.90;;;;;;5032568;28;20131;-79
2022/03/16 03:57:59;;;;;;;35.35;26.33;;;4.40;99.90;;;;;;5032948;28;20128;-79
2022/03/16 04:00:25;;;;;;;32.70;24.55;;;4.40;99.90;;;;;;5033013;28;20133;-79
2022/03/16 04:02:51;;;;;;;36.30;24.63;;;4.30;99.90;;;;;;5032507;28;20462;-79
2022/03/16 04:05:17;;;;;;;39.22;27.48;;;4.30;99.90;;;;;;5015345;28;20050;-79
2022/03/16 04:07:43;;;;;;;36.63;26.33;;;4.30;99.90;;;;;;5032788;28;20402;-79
2022/03/16 04:10:09;;;;;;;34.75;26.10;;;4.20;99.90;;;;;;5032732;28;20049;-79
2022/03/16 04:12:36;;;;;;;36.50;26.13;;;4.20;99.90;;;;;;5032553;28;20045;-82
2022/03/16 04:15:01;;;;;;;39.45;26.90;;;4.20;99.90;;;;;;5015265;28;20088;-80
2022/03/16 04:17:27;;;;;;;38.00;27.23;;;4.20;99.90;;;;;;5032683;28;20450;-79
2022/03/16 04:19:52;;;;;;;34.53;25.67;;;4.20;99.90;;;;;;5014582;28;20474;-79
2022/03/16 04:22:18;;;;;;;36.88;26.38;;;4.20;99.90;;;;;;5032745;28;20049;-79
2022/03/16 04:24:44;;;;;;;31.88;24.73;;;4.20;99.90;;;;;;5032260;28;20050;-79
2022/03/16 04:27:09;;;;;;;35.08;26.50;;;4.10;99.90;;;;;;5032556;28;20406;-79
2022/03/16 04:29:35;;;;;;;31.65;24.85;;;4.10;99.90;;;;;;4999091;28;20073;-79
2022/03/16 04:32:01;;;;;;;34.25;24.27;;;4.10;99.90;;;;;;5014752;28;20370;-80
2022/03/16 04:34:26;;;;;;;31.33;24.55;;;4.10;99.90;;;;;;5032370;28;20053;-79
2022/03/16 04:36:52;;;;;;;33.88;25.52;;;4.10;99.90;;;;;;5032492;28;20538;-79
2022/03/16 04:39:18;;;;;;;29.63;24.30;;;4.00;99.90;;;;;;5015916;28;20133;-79
2022/03/16 04:41:43;;;;;;;33.08;24.00;;;4.10;99.90;;;;;;5032657;28;20071;-79
2022/03/16 04:44:09;;;;;;;31.83;24.92;;;4.00;99.90;;;;;;5033608;28;20379;-78
2022/03/16 04:46:35;;;;;;;36.45;25.05;;;4.00;99.90;;;;;;5020311;28;20067;-76
2022/03/16 04:49:00;;;;;;;31.67;23.75;;;4.00;99.90;;;;;;5037688;28;20046;-76
2022/03/16 04:51:26;;;;;;;32.33;24.38;;;4.00;99.90;;;;;;5038399;28;20087;-78
2022/03/16 04:53:51;;;;;;;28.75;21.95;;;3.90;99.90;;;;;;5017804;28;20049;-80
2022/03/16 04:56:17;;;;;;;31.20;23.33;;;3.90;99.90;;;;;;5037993;28;20370;-78
2022/03/16 04:58:43;;;;;;;30.00;23.48;;;3.90;99.90;;;;;;5036500;28;20045;-80
2022/03/16 05:01:08;;;;;;;33.88;24.55;;;3.90;99.90;;;;;;5036633;28;20095;-78
2022/03/16 05:03:34;;;;;;;29.90;21.73;;;3.80;99.90;;;;;;5036522;28;20048;-80
2022/03/16 05:05:59;;;;;;;29.73;23.05;;;3.80;99.90;;;;;;5036115;28;20085;-79
2022/03/16 05:08:25;;;;;;;30.02;22.65;;;3.80;99.90;;;;;;5018854;28;20041;-79
2022/03/16 05:10:51;;;;;;;26.05;20.05;;;3.70;99.90;;;;;;5036104;28;20037;-78
2022/03/16 05:13:16;;;;;;;25.48;20.40;;;3.70;99.90;;;;;;5036126;28;20037;-79
2022/03/16 05:15:42;;;;;;;26.60;19.63;;;3.60;99.90;;;;;;5035852;28;20172;-79
2022/03/16 05:18:08;;;;;;;27.35;21.27;;;3.60;99.90;;;;;;5035656;28;20053;-79
2022/03/16 05:20:33;;;;;;;27.63;20.38;;;3.50;99.90;;;;;;5036107;28;20038;-80
2022/03/16 05:22:59;;;;;;;28.02;21.15;;;3.60;99.90;;;;;;5035605;28;20045;-79
2022/03/16 05:25:26;;;;;;;29.77;23.42;;;3.50;99.90;;;;;;5018590;28;20049;-79
2022/03/16 05:27:52;;;;;;;28.05;21.92;;;3.50;99.90;;;;;;5035395;28;20049;-80
2022/03/16 05:30:20;;;;;;;29.13;22.42;;;3.50;99.90;;;;;;5018032;28;20049;-79
2022/03/16 05:32:46;;;;;;;24.67;19.70;;;3.50;99.90;;;;;;5035727;28;20049;-78
2022/03/16 05:35:12;;;;;;;22.73;19.25;;;3.50;99.90;;;;;;5017938;28;20056;-78
2022/03/16 05:37:38;;;;;;;22.30;18.92;;;3.50;99.90;;;;;;5018015;28;20488;-80
2022/03/16 05:40:05;;;;;;;23.75;19.38;;;3.60;99.90;;;;;;5034664;28;20049;-79
2022/03/16 05:42:31;;;;;;;24.42;20.08;;;3.60;99.90;;;;;;5035600;28;20050;-79
2022/03/16 05:44:57;;;;;;;25.33;20.48;;;3.60;99.90;;;;;;5035189;28;20052;-80
2022/03/16 05:47:22;;;;;;;27.45;22.25;;;3.60;99.90;;;;;;5035388;28;20054;-81
2022/03/16 05:49:52;;;;;;;27.92;21.85;;;3.60;99.90;;;;;;5018109;28;20437;-81
2022/03/16 05:52:21;;;;;;;27.70;22.40;;;3.60;99.90;;;;;;5001579;28;20129;-79
2022/03/16 05:54:48;;;;;;;32.65;24.73;;;3.70;99.90;;;;;;5001669;28;20092;-81
2022/03/16 05:57:15;;;;;;;35.63;26.77;;;3.70;99.90;;;;;;5034972;28;20056;-81
2022/03/16 05:59:44;;;;;;;34.28;26.35;;;3.80;99.90;;;;;;5035113;28;20049;-80
2022/03/16 06:02:10;;;;;;;37.00;27.50;;;3.90;99.90;;;;;;5017974;28;20512;-81
2022/03/16 06:04:36;;;;;;;32.72;26.30;;;3.90;99.90;;;;;;5016978;28;20120;-82
2022/03/16 06:07:03;;;;;;;39.58;27.08;;;4.00;99.90;;;;;;5034940;28;20057;-82
2022/03/16 06:09:28;;;;;;;35.30;27.27;;;4.00;99.90;;;;;;5035398;28;20049;-81
2022/03/16 06:11:54;;;;;;;35.10;26.58;;;4.10;99.90;;;;;;5019024;28;20053;-81
2022/03/16 06:14:20;;;;;;;34.50;25.63;;;4.10;99.90;;;;;;5041326;28;20099;-81
2022/03/16 06:16:47;;;;;;;34.53;26.38;;;4.20;99.90;;;;;;5040142;28;20036;-78
2022/03/16 06:19:13;;;;;;;34.45;25.38;;;4.20;99.90;;;;;;5039575;28;20045;-81
2022/03/16 06:21:38;;;;;;;33.05;26.45;;;4.30;99.90;;;;;;5039521;28;20106;-80
2022/03/16 06:24:05;;;;;;;32.92;25.65;;;4.30;99.90;;;;;;5016927;28;20060;-80
2022/03/16 06:26:30;;;;;;;37.63;29.35;;;4.40;99.90;;;;;;5034818;28;20374;-81
2022/03/16 06:28:56;;;;;;;35.47;27.75;;;4.40;99.90;;;;;;5000529;28;20056;-82
2022/03/16 06:31:22;;;;;;;35.55;27.42;;;4.50;99.90;;;;;;5017268;28;20081;-81
2022/03/16 06:33:47;;;;;;;37.17;27.40;;;4.50;99.90;;;;;;5017242;28;20456;-80
2022/03/16 06:36:13;;;;;;;35.47;26.75;;;4.50;99.90;;;;;;5034449;28;20072;-81
2022/03/16 06:38:41;;;;;;;37.33;28.38;;;4.60;99.90;;;;;;5034896;28;20042;-82
2022/03/16 06:41:07;;;;;;;37.22;27.42;;;4.60;99.90;;;;;;5034120;28;20053;-81
2022/03/16 06:43:32;;;;;;;38.90;29.00;;;4.70;99.90;;;;;;5034310;28;20072;-81
2022/03/16 06:45:58;;;;;;;38.55;28.60;;;4.90;99.90;;;;;;5034404;28;20060;-81
2022/03/16 06:48:24;;;;;;;37.25;27.80;;;4.80;99.90;;;;;;5017655;28;20061;-82
2022/03/16 06:50:50;;;;;;;37.63;30.00;;;4.90;99.90;;;;;;5034547;28;20508;-81
2022/03/16 06:53:16;;;;;;;41.10;30.35;;;4.90;99.90;;;;;;5016990;28;20041;-82
2022/03/16 06:55:42;;;;;;;38.85;29.30;;;5.00;99.90;;;;;;5016800;28;20544;-81
2022/03/16 06:58:07;;;;;;;39.13;29.30;;;5.10;99.90;;;;;;5016358;28;20076;-81
2022/03/16 07:00:33;;;;;;;38.88;30.38;;;5.10;99.90;;;;;;5016682;28;20042;-82
2022/03/16 07:03:00;;;;;;;42.15;30.65;;;5.20;99.90;;;;;;5017135;28;20448;-81
2022/03/16 07:05:33;;;;;;;39.70;31.13;;;5.20;99.90;;;;;;5000612;28;20092;-81
2022/03/16 07:08:00;;;;;;;42.70;30.10;;;5.30;99.90;;;;;;5034407;28;20045;-81
2022/03/16 07:10:27;;;;;;;42.30;30.73;;;5.30;99.90;;;;;;5016833;28;20053;-81
2022/03/16 07:12:53;;;;;;;38.20;30.08;;;5.40;99.90;;;;;;5016650;28;20506;-81
2022/03/16 07:15:18;;;;;;;42.65;30.88;;;5.40;99.90;;;;;;5033832;28;20045;-81
2022/03/16 07:17:44;;;;;;;38.30;30.55;;;5.40;99.90;;;;;;5016213;28;20056;-81
2022/03/16 07:20:10;;;;;;;40.88;30.65;;;5.50;99.90;;;;;;5016134;28;20113;-81
2022/03/16 07:22:35;;;;;;;37.80;30.63;;;5.60;99.90;;;;;;5016357;28;20482;-81
2022/03/16 07:25:09;;;;;;;37.88;30.33;;;5.60;99.90;;;;;;5034198;28;20053;-82
2022/03/16 07:27:39;;;;;;;38.33;28.92;;;5.70;99.90;;;;;;5021464;28;20049;-81
2022/03/16 07:30:06;;;;;;;37.47;28.17;;;5.70;99.90;;;;;;5040065;28;20112;-81
2022/03/16 07:32:33;;;;;;;37.63;29.52;;;5.80;99.90;;;;;;5035435;28;20049;-82
2022/03/16 07:34:58;;;;;;;36.05;28.98;;;5.80;99.90;;;;;;5036751;28;20490;-82
2022/03/16 07:37:24;;;;;;;34.13;28.23;;;5.90;99.90;;;;;;5016130;28;20379;-81
2022/03/16 07:39:50;;;;;;;35.00;28.15;;;6.00;99.90;;;;;;5046400;28;20057;-81
2022/03/16 07:42:15;;;;;;;31.95;27.77;;;6.10;99.90;;;;;;5047597;28;20111;-82
2022/03/16 07:44:41;;;;;;;34.75;27.52;;;6.20;99.90;;;;;;5048989;28;20037;-82
2022/03/16 07:47:07;;;;;;;35.30;27.75;;;6.30;99.90;;;;;;5039951;28;20053;-84
2022/03/16 07:49:36;;;;;;;32.17;26.25;;;6.30;99.90;;;;;;5057290;28;20030;-82
2022/03/16 07:52:02;;;;;;;33.15;26.27;;;6.40;99.90;;;;;;5019538;28;20041;-80
2022/03/16 07:54:27;;;;;;;32.40;25.77;;;6.50;99.90;;;;;;5015703;28;20505;-82
2022/03/16 07:56:53;;;;;;;36.03;25.85;;;6.50;99.90;;;;;;5015973;28;20085;-81
2022/03/16 07:59:19;;;;;;;30.17;24.98;;;6.60;99.90;;;;;;5033023;28;20502;-82
2022/03/16 08:01:45;;;;;;;29.50;25.08;;;6.60;99.90;;;;;;5015796;28;20049;-81
2022/03/16 08:04:11;;;;;;;30.23;24.75;;;6.70;99.90;;;;;;5032862;28;20068;-81
2022/03/16 08:06:37;;;;;;;30.77;25.15;;;6.70;99.90;;;;;;5033276;28;20056;-81
2022/03/16 08:09:02;;;;;;;29.77;24.60;;;6.80;99.90;;;;;;5015793;28;20049;-82
2022/03/16 08:11:28;;;;;;;27.83;24.45;;;6.80;99.90;;;;;;5032733;28;20077;-79
2022/03/16 08:13:54;;;;;;;26.77;22.42;;;6.90;99.90;;;;;;5033079;28;20045;-79
2022/03/16 08:16:19;;;;;;;26.67;22.65;;;7.00;99.90;;;;;;5015075;28;20080;-79
2022/03/16 08:18:45;;;;;;;28.38;23.02;;;7.00;99.90;;;;;;5033018;28;20123;-79
2022/03/16 08:21:11;;;;;;;25.55;22.17;;;7.10;99.90;;;;;;5032790;28;20474;-83
2022/03/16 08:23:38;;;;;;;27.45;22.95;;;7.10;99.90;;;;;;5015356;28;20490;-81
2022/03/16 08:26:03;;;;;;;25.95;21.67;;;7.20;99.90;;;;;;5015580;28;20061;-80
2022/03/16 08:28:29;;;;;;;27.65;22.45;;;7.30;99.90;;;;;;5031519;28;20121;-81
2022/03/16 08:30:55;;;;;;;26.67;21.77;;;7.40;99.90;;;;;;5015243;28;20061;-80
2022/03/16 08:33:23;;;;;;;24.80;20.48;;;7.50;99.90;;;;;;5032448;28;20106;-81
2022/03/16 08:35:49;;;;;;;27.45;21.02;;;7.60;99.90;;;;;;5032909;28;20371;-80
2022/03/16 08:38:15;;;;;;;23.65;20.27;;;7.60;99.90;;;;;;5032693;28;20038;-81
2022/03/16 08:40:41;;;;;;;28.20;21.38;;;7.70;99.90;;;;;;5014824;28;20060;-81
2022/03/16 08:43:08;;;;;;;25.75;21.23;;;7.80;99.90;;;;;;5032834;28;20049;-80
2022/03/16 08:45:33;;;;;;;25.98;21.13;;;7.80;99.90;;;;;;5032386;28;20080;-80
2022/03/16 08:47:59;;;;;;;30.65;21.45;;;7.90;99.90;;;;;;5032849;28;20170;-81
2022/03/16 08:50:25;;;;;;;25.65;21.00;;;8.10;99.90;;;;;;5014900;28;20042;-81
2022/03/16 08:52:51;;;;;;;29.30;21.88;;;8.10;99.90;;;;;;5032768;28;20099;-80
2022/03/16 08:55:17;;;;;;;27.35;22.80;;;8.20;99.90;;;;;;5014655;28;20042;-82
2022/03/16 08:57:45;;;;;;;30.25;23.35;;;8.30;99.90;;;;;;5032626;28;20111;-81
2022/03/16 09:00:15;;;;;;;30.23;23.27;;;8.40;99.90;;;;;;5032463;28;20088;-81
2022/03/16 09:02:44;;;;;;;31.70;23.15;;;8.40;99.90;;;;;;5015101;28;20049;-80
2022/03/16 09:05:10;;;;;;;30.58;23.90;;;8.40;99.90;;;;;;5032615;28;20083;-80
2022/03/16 09:07:35;;;;;;;31.98;24.55;;;8.50;99.90;;;;;;5032121;28;20042;-80
2022/03/16 09:10:02;;;;;;;32.63;24.40;;;8.60;99.90;;;;;;5032516;28;20455;-82
2022/03/16 09:12:28;;;;;;;27.77;22.83;;;8.70;99.90;;;;;;5014929;28;20056;-80
2022/03/16 09:14:53;;;;;;;29.13;23.90;;;8.80;99.90;;;;;;4998704;28;20049;-80
2022/03/16 09:17:20;;;;;;;28.95;22.60;;;8.90;99.90;;;;;;5032727;28;20144;-80
2022/03/16 09:19:46;;;;;;;29.75;23.40;;;9.00;99.90;;;;;;5037811;28;20056;-78
2022/03/16 09:22:11;;;;;;;31.20;22.75;;;9.10;99.90;;;;;;5034205;28;20045;-80
2022/03/16 09:24:38;;;;;;;31.48;21.90;;;9.20;99.90;;;;;;5032580;28;20050;-79
2022/03/16 09:27:05;;;;;;;30.33;22.85;;;9.30;99.90;;;;;;5021443;28;20045;-75
2022/03/16 09:29:31;;;;;;;25.27;19.88;;;9.40;99.90;;;;;;5032576;28;20050;-76
2022/03/16 09:31:56;;;;;;;25.92;19.67;;;9.50;99.90;;;;;;5052078;28;20048;-80
2022/03/16 09:34:22;;;;;;;25.15;20.58;;;9.70;99.90;;;;;;5035435;28;20045;-81
2022/03/16 09:36:48;;;;;;;26.48;19.42;;;9.80;99.90;;;;;;5008661;28;20083;-79
2022/03/16 09:39:13;;;;;;;21.55;18.27;;;9.90;99.90;;;;;;5033185;28;20045;-79
2022/03/16 09:41:40;;;;;;;24.83;18.15;;;9.90;99.90;;;;;;5017465;28;20061;-79
2022/03/16 09:44:06;;;;;;;26.08;17.40;;;10.10;99.90;;;;;;5001818;28;20084;-79
2022/03/16 09:46:33;;;;;;;24.17;17.38;;;10.10;99.90;;;;;;5035387;28;20054;-80
2022/03/16 09:48:59;;;;;;;23.45;17.75;;;10.20;99.90;;;;;;5018301;28;20053;-80
2022/03/16 09:51:31;;;;;;;21.08;17.15;;;10.40;99.90;;;;;;5017633;28;20048;-80
2022/03/16 09:53:57;;;;;;;21.65;16.73;;;10.40;99.90;;;;;;5035703;28;20370;-80
2022/03/16 09:56:23;;;;;;;20.60;16.88;;;10.40;99.90;;;;;;5035323;28;20041;-79
2022/03/16 09:58:49;;;;;;;21.52;16.15;;;10.40;99.90;;;;;;5001447;28;20096;-80
2022/03/16 10:01:14;;;;;;;22.25;15.98;;;10.50;99.90;;;;;;5017824;28;20052;-80
2022/03/16 10:03:40;;;;;;;19.05;14.70;;;10.50;99.90;;;;;;5034949;28;20056;-80
2022/03/16 10:06:08;;;;;;;17.95;13.90;;;10.60;99.90;;;;;;5035365;28;20112;-79
2022/03/16 10:08:35;;;;;;;16.48;13.98;;;10.70;99.90;;;;;;5035206;28;20045;-80
2022/03/16 10:13:52;;;;;;;16.08;12.85;;;10.80;99.90;;;;;;5035057;28;20109;-81
2022/03/16 10:16:18;;;;;;;15.75;12.23;;;10.90;99.90;;;;;;5034069;28;20071;-80
2022/03/16 10:18:46;;;;;;;17.55;13.30;;;11.00;99.90;;;;;;5017532;28;20132;-79
2022/03/16 10:21:12;;;;;;;14.30;12.80;;;11.00;99.90;;;;;;5017638;28;20120;-79
2022/03/16 10:23:38;;;;;;;17.02;12.07;;;11.10;99.90;;;;;;5017436;28;20143;-80
2022/03/16 10:26:03;;;;;;;14.75;11.90;;;11.20;99.90;;;;;;5017306;28;20413;-80
2022/03/16 10:28:32;;;;;;;14.07;12.40;;;11.30;99.90;;;;;;5034683;28;20116;-82
2022/03/16 10:31:05;;;;;;;14.57;11.45;;;11.40;99.90;;;;;;5017384;28;20045;-78
2022/03/16 10:33:37;;;;;;;12.95;11.23;;;11.50;99.80;;;;;;5035036;28;20049;-81
2022/03/16 10:36:07;;;;;;;14.95;12.52;;;11.60;99.10;;;;;;5035247;28;20081;-81
2022/03/16 10:38:37;;;;;;;15.18;12.85;;;11.60;97.70;;;;;;5034584;28;20128;-80
2022/03/16 10:46:34;;;;;;;15.02;11.35;;;11.60;97.60;;;;;;5034624;28;20096;-80
2022/03/16 10:46:46;;;;;;;13.48;11.18;;;11.70;96.20;;;;;;5019361;28;20053;-79
2022/03/16 10:49:16;;;;;;;16.13;11.30;;;11.90;95.20;;;;;;5034587;28;20125;-80
2022/03/16 10:51:43;;;;;;;13.93;10.20;;;12.00;94.70;;;;;;5017144;28;20053;-80
2022/03/16 10:54:08;;;;;;;14.55;11.45;;;12.00;93.40;;;;;;5017277;28;20152;-80
2022/03/16 10:56:34;;;;;;;14.63;10.82;;;12.10;93.30;;;;;;5016890;28;20485;-80
2022/03/16 10:58:59;;;;;;;13.27;10.70;;;12.20;92.80;;;;;;5016701;28;20052;-79
2022/03/16 11:01:26;;;;;;;15.68;11.57;;;12.20;92.80;;;;;;5016862;28;20136;-78
2022/03/16 11:03:52;;;;;;;15.95;11.30;;;12.30;92.50;;;;;;5016447;28;20042;-80
2022/03/16 11:06:21;;;;;;;12.95;11.52;;;12.40;91.80;;;;;;5016845;28;20405;-80
2022/03/16 11:08:47;;;;;;;16.23;11.45;;;12.40;91.40;;;;;;5033917;28;20056;-79
2022/03/16 11:13:58;;;;;;;15.65;11.13;;;12.50;90.30;;;;;;5034266;28;20056;-80
2022/03/16 11:16:25;;;;;;;12.52;10.40;;;12.50;89.60;;;;;;5000423;28;20045;-79
2022/03/16 11:18:51;;;;;;;15.73;11.75;;;12.50;88.60;;;;;;5016374;28;20053;-80
2022/03/16 11:21:21;;;;;;;14.32;11.07;;;12.60;88.60;;;;;;5033968;28;20041;-79
2022/03/16 11:26:37;;;;;;;14.77;11.70;;;12.80;89.10;;;;;;5037079;28;20080;-75
2022/03/16 11:29:07;;;;;;;15.02;11.00;;;12.80;88.60;;;;;;5052183;28;20105;-79
2022/03/16 11:31:34;;;;;;;14.82;11.10;;;12.90;90.00;;;;;;5033500;28;20046;-76
2022/03/16 11:34:02;;;;;;;11.43;10.23;;;12.90;90.40;;;;;;5019449;28;20053;-80
2022/03/16 11:36:28;;;;;;;12.95;10.88;;;13.10;88.30;;;;;;5033950;28;20111;-80
2022/03/16 11:38:54;;;;;;;13.20;10.50;;;13.10;85.50;;;;;;5015640;28;20059;-80
2022/03/16 11:41:27;;;;;;;13.07;11.45;;;13.20;86.60;;;;;;5016040;28;20049;-81
2022/03/16 11:44:24;;;;;;;14.98;10.43;;;13.20;83.00;;;;;;5033257;28;20049;-79
2022/03/16 11:46:50;;;;;;;15.05;11.10;;;13.20;85.10;;;;;;5032471;28;20107;-80
2022/03/16 11:49:26;;;;;;;13.20;10.85;;;13.30;88.60;;;;;;5034279;28;20374;-81
2022/03/16 11:51:57;;;;;;;12.52;10.10;;;13.40;84.00;;;;;;5033306;28;20128;-80
2022/03/16 11:54:39;;;;;;;12.38;10.27;;;13.40;78.80;;;;;;5033444;28;20449;-80
2022/03/16 11:57:05;;;;;;;13.80;10.55;;;13.40;78.10;;;;;;5017166;28;20084;-80
2022/03/16 11:59:31;;;;;;;14.43;10.00;;;13.40;81.50;;;;;;5033660;28;20091;-80
2022/03/16 12:02:05;;;;;;;11.75;10.27;;;13.40;82.30;;;;;;5015078;28;20042;-80
2022/03/16 12:04:33;;;;;;;14.60;11.25;;;13.40;81.60;;;;;;5015896;28;20056;-81
2022/03/16 12:07:18;;;;;;;15.25;11.13;;;13.50;81.40;;;;;;5032975;28;20046;-80
2022/03/16 12:09:56;;;;;;;13.90;10.68;;;13.50;81.50;;;;;;5032993;28;20128;-81
2022/03/16 12:12:57;;;;;;;13.55;10.77;;;13.60;79.70;;;;;;4999617;28;20109;-80
2022/03/16 12:15:33;;;;;;;17.17;11.63;;;13.60;82.10;;;;;;5018231;28;20216;-81
2022/03/16 12:17:59;;;;;;;14.00;11.18;;;13.60;82.50;;;;;;5015595;28;20042;-81
2022/03/16 12:20:26;;;;;;;12.55;10.38;;;13.60;83.30;;;;;;5033311;28;20045;-80
2022/03/16 12:22:59;;;;;;;14.98;9.63;;;13.60;83.10;;;;;;5032781;28;20053;-80
2022/03/16 12:25:26;;;;;;;13.30;9.23;;;13.70;79.60;;;;;;5015474;28;20049;-80
2022/03/16 12:30:43;;;;;;;12.65;9.57;;;13.70;76.70;;;;;;5032910;28;20049;-80
2022/03/16 12:33:20;;;;;;;12.23;9.98;;;13.70;76.50;;;;;;5032256;28;20041;-81
2022/03/16 12:35:47;;;;;;;13.50;10.15;;;13.70;76.10;;;;;;5016114;28;20052;-80
2022/03/16 12:38:13;;;;;;;13.25;10.18;;;13.80;76.50;;;;;;5033017;28;20060;-80
2022/03/16 12:43:23;;;;;;;15.18;11.50;;;13.80;74.90;;;;;;5032797;28;20430;-81
2022/03/16 12:45:49;;;;;;;12.88;10.35;;;13.80;75.10;;;;;;5032703;28;20057;-81
2022/03/16 12:48:15;;;;;;;14.02;11.20;;;13.80;74.50;;;;;;4999181;28;20466;-80
2022/03/16 12:50:44;;;;;;;11.75;10.45;;;13.80;74.80;;;;;;4999214;28;20132;-79